sensor_id;sensor_type;location;lat;lon;timestamp;pressure;altitude;pressure_sealevel;temperature;humidity
59789;BME280;47353;51.614;5.530;2023-04-09T00:00:32;102458.66;;;9.92;87.25
59789;BME280;47353;51.614;5.530;2023-04-09T00:02:58;102462.50;;;9.91;86.95
59789;BME280;47353;51.614;5.530;2023-04-09T00:05:23;102458.53;;;9.87;86.70
59789;BME280;47353;51.614;5.530;2023-04-09T00:07:48;102454.69;;;9.88;86.92
59789;BME280;47353;51.614;5.530;2023-04-09T00:10:14;102450.59;;;9.90;86.87
59789;BME280;47353;51.614;5.530;2023-04-09T00:12:39;102453.81;;;9.87;87.30
59789;BME280;47353;51.614;5.530;2023-04-09T00:15:05;102443.84;;;9.86;87.50
59789;BME280;47353;51.614;5.530;2023-04-09T00:17:31;102453.00;;;9.87;87.79
59789;BME280;47353;51.614;5.530;2023-04-09T00:19:56;102448.53;;;9.86;87.62
59789;BME280;47353;51.614;5.530;2023-04-09T00:22:22;102445.13;;;9.84;87.93
59789;BME280;47353;51.614;5.530;2023-04-09T00:24:47;102447.06;;;9.83;87.84
59789;BME280;47353;51.614;5.530;2023-04-09T00:27:12;102440.69;;;9.83;87.79
59789;BME280;47353;51.614;5.530;2023-04-09T00:29:38;102444.31;;;9.83;88.31
59789;BME280;47353;51.614;5.530;2023-04-09T00:32:03;102444.53;;;9.82;88.75
59789;BME280;47353;51.614;5.530;2023-04-09T00:34:29;102437.78;;;9.78;88.63
59789;BME280;47353;51.614;5.530;2023-04-09T00:36:54;102436.47;;;9.80;88.54
59789;BME280;47353;51.614;5.530;2023-04-09T00:39:20;102433.94;;;9.79;88.47
59789;BME280;47353;51.614;5.530;2023-04-09T00:41:45;102436.47;;;9.80;88.65
59789;BME280;47353;51.614;5.530;2023-04-09T00:44:11;102433.09;;;9.78;88.86
59789;BME280;47353;51.614;5.530;2023-04-09T00:46:36;102437.53;;;9.79;89.00
59789;BME280;47353;51.614;5.530;2023-04-09T00:49:02;102431.19;;;9.79;88.75
59789;BME280;47353;51.614;5.530;2023-04-09T00:51:27;102427.81;;;9.77;88.85
59789;BME280;47353;51.614;5.530;2023-04-09T00:53:54;102427.81;;;9.77;88.94
59789;BME280;47353;51.614;5.530;2023-04-09T00:56:20;102424.88;;;9.72;88.96
59789;BME280;47353;51.614;5.530;2023-04-09T00:58:46;102420.44;;;9.71;89.06
59789;BME280;47353;51.614;5.530;2023-04-09T01:01:12;102428.75;;;9.71;89.07
59789;BME280;47353;51.614;5.530;2023-04-09T01:03:38;102425.19;;;9.64;89.15
59789;BME280;47353;51.614;5.530;2023-04-09T01:06:11;102428.97;;;9.69;89.21
59789;BME280;47353;51.614;5.530;2023-04-09T01:11:26;102422.81;;;9.67;89.86
59789;BME280;47353;51.614;5.530;2023-04-09T01:14:05;102424.28;;;9.70;89.59
59789;BME280;47353;51.614;5.530;2023-04-09T01:16:34;102423.06;;;9.66;89.96
59789;BME280;47353;51.614;5.530;2023-04-09T01:22:03;102417.13;;;9.62;89.92
59789;BME280;47353;51.614;5.530;2023-04-09T01:25:15;102415.47;;;9.61;90.55
59789;BME280;47353;51.614;5.530;2023-04-09T01:27:45;102419.22;;;9.67;90.03
59789;BME280;47353;51.614;5.530;2023-04-09T01:30:18;102414.38;;;9.62;89.81
59789;BME280;47353;51.614;5.530;2023-04-09T01:32:45;102413.78;;;9.60;90.37
59789;BME280;47353;51.614;5.530;2023-04-09T01:35:10;102405.72;;;9.59;90.93
59789;BME280;47353;51.614;5.530;2023-04-09T01:37:37;102412.94;;;9.60;90.86
59789;BME280;47353;51.614;5.530;2023-04-09T01:40:03;102413.78;;;9.60;90.84
59789;BME280;47353;51.614;5.530;2023-04-09T01:42:29;102411.59;;;9.62;90.36
59789;BME280;47353;51.614;5.530;2023-04-09T01:44:55;102408.09;;;9.55;91.31
59789;BME280;47353;51.614;5.530;2023-04-09T01:47:21;102403.88;;;9.53;91.50
59789;BME280;47353;51.614;5.530;2023-04-09T01:49:47;102403.50;;;9.49;92.00
59789;BME280;47353;51.614;5.530;2023-04-09T01:52:13;102402.81;;;9.54;91.29
59789;BME280;47353;51.614;5.530;2023-04-09T01:54:39;102402.19;;;9.52;91.90
59789;BME280;47353;51.614;5.530;2023-04-09T01:57:04;102401.59;;;9.50;92.09
59789;BME280;47353;51.614;5.530;2023-04-09T01:59:29;102400.13;;;9.47;92.18
59789;BME280;47353;51.614;5.530;2023-04-09T02:02:08;102403.97;;;9.46;92.37
59789;BME280;47353;51.614;5.530;2023-04-09T02:04:38;102405.88;;;9.46;92.23
59789;BME280;47353;51.614;5.530;2023-04-09T02:09:38;102412.25;;;9.46;92.40
59789;BME280;47353;51.614;5.530;2023-04-09T02:12:05;102405.41;;;9.49;91.95
59789;BME280;47353;51.614;5.530;2023-04-09T02:14:32;102404.66;;;9.42;92.56
59789;BME280;47353;51.614;5.530;2023-04-09T02:16:58;102402.97;;;9.41;92.62
59789;BME280;47353;51.614;5.530;2023-04-09T02:19:24;102401.66;;;9.43;92.23
59789;BME280;47353;51.614;5.530;2023-04-09T02:21:50;102410.19;;;9.42;92.12
59789;BME280;47353;51.614;5.530;2023-04-09T02:24:15;102403.41;;;9.38;92.35
59789;BME280;47353;51.614;5.530;2023-04-09T02:26:40;102401.28;;;9.40;92.34
59789;BME280;47353;51.614;5.530;2023-04-09T02:29:06;102401.13;;;9.35;92.87
59789;BME280;47353;51.614;5.530;2023-04-09T02:31:31;102398.97;;;9.37;92.63
59789;BME280;47353;51.614;5.530;2023-04-09T02:33:57;102392.00;;;9.34;92.88
59789;BME280;47353;51.614;5.530;2023-04-09T02:36:22;102401.13;;;9.35;92.76
59789;BME280;47353;51.614;5.530;2023-04-09T02:38:47;102394.06;;;9.39;92.27
59789;BME280;47353;51.614;5.530;2023-04-09T02:41:13;102396.06;;;9.32;92.91
59789;BME280;47353;51.614;5.530;2023-04-09T02:43:38;102392.47;;;9.31;93.04
59789;BME280;47353;51.614;5.530;2023-04-09T02:46:03;102387.63;;;9.27;93.24
59789;BME280;47353;51.614;5.530;2023-04-09T02:48:29;102388.22;;;9.29;93.29
59789;BME280;47353;51.614;5.530;2023-04-09T02:50:55;102389.78;;;9.25;93.52
59789;BME280;47353;51.614;5.530;2023-04-09T02:53:21;102383.41;;;9.24;93.59
59789;BME280;47353;51.614;5.530;2023-04-09T02:55:47;102386.56;;;9.28;93.32
59789;BME280;47353;51.614;5.530;2023-04-09T02:58:12;102388.69;;;9.26;93.22
59789;BME280;47353;51.614;5.530;2023-04-09T03:00:38;102390.63;;;9.25;93.09
59789;BME280;47353;51.614;5.530;2023-04-09T03:03:03;102388.06;;;9.24;93.15
59789;BME280;47353;51.614;5.530;2023-04-09T03:05:28;102385.78;;;9.21;93.67
59789;BME280;47353;51.614;5.530;2023-04-09T03:07:55;102383.88;;;9.21;93.66
59789;BME280;47353;51.614;5.530;2023-04-09T03:10:21;102379.88;;;9.17;94.13
59789;BME280;47353;51.614;5.530;2023-04-09T03:12:47;102383.69;;;9.16;94.14
59789;BME280;47353;51.614;5.530;2023-04-09T03:15:12;102378.50;;;9.26;93.37
59789;BME280;47353;51.614;5.530;2023-04-09T03:17:38;102371.81;;;9.16;94.15
59789;BME280;47353;51.614;5.530;2023-04-09T03:20:05;102380.25;;;9.21;93.91
59789;BME280;47353;51.614;5.530;2023-04-09T03:22:36;102376.50;;;9.15;94.48
59789;BME280;47353;51.614;5.530;2023-04-09T03:25:02;102373.28;;;9.18;93.76
59789;BME280;47353;51.614;5.530;2023-04-09T03:27:28;102378.56;;;9.20;94.07
59789;BME280;47353;51.614;5.530;2023-04-09T03:29:56;102376.50;;;9.15;94.28
59789;BME280;47353;51.614;5.530;2023-04-09T03:32:21;102365.59;;;9.20;93.56
59789;BME280;47353;51.614;5.530;2023-04-09T03:34:47;102368.84;;;9.17;93.54
59789;BME280;47353;51.614;5.530;2023-04-09T03:37:12;102367.13;;;9.16;93.29
59789;BME280;47353;51.614;5.530;2023-04-09T03:39:38;102362.75;;;9.09;94.21
59789;BME280;47353;51.614;5.530;2023-04-09T03:42:03;102367.47;;;9.08;94.08
59789;BME280;47353;51.614;5.530;2023-04-09T03:44:28;102359.63;;;9.05;94.19
59789;BME280;47353;51.614;5.530;2023-04-09T03:46:54;102361.53;;;9.05;94.17
59789;BME280;47353;51.614;5.530;2023-04-09T03:49:19;102368.75;;;9.06;94.03
59789;BME280;47353;51.614;5.530;2023-04-09T03:51:45;102362.75;;;9.09;93.52
59789;BME280;47353;51.614;5.530;2023-04-09T03:54:10;102352.88;;;9.01;94.59
59789;BME280;47353;51.614;5.530;2023-04-09T03:56:36;102357.75;;;8.99;93.65
59789;BME280;47353;51.614;5.530;2023-04-09T03:59:01;102359.69;;;8.99;92.92
59789;BME280;47353;51.614;5.530;2023-04-09T04:01:27;102351.78;;;9.02;91.87
59789;BME280;47353;51.614;5.530;2023-04-09T04:03:52;102359.47;;;9.00;91.13
59789;BME280;47353;51.614;5.530;2023-04-09T04:06:17;102353.09;;;9.00;91.19
59789;BME280;47353;51.614;5.530;2023-04-09T04:08:43;102353.09;;;8.82;92.40
59789;BME280;47353;51.614;5.530;2023-04-09T04:11:08;102356.25;;;8.85;91.88
59789;BME280;47353;51.614;5.530;2023-04-09T04:13:34;102354.78;;;8.83;91.48
59789;BME280;47353;51.614;5.530;2023-04-09T04:15:59;102358.69;;;8.75;92.18
59789;BME280;47353;51.614;5.530;2023-04-09T04:18:25;102362.44;;;8.81;91.32
59789;BME280;47353;51.614;5.530;2023-04-09T04:20:50;102361.28;;;8.70;92.11
59789;BME280;47353;51.614;5.530;2023-04-09T04:23:16;102360.34;;;8.76;90.64
59789;BME280;47353;51.614;5.530;2023-04-09T04:25:41;102362.34;;;8.69;91.33
59789;BME280;47353;51.614;5.530;2023-04-09T04:28:07;102362.59;;;8.68;90.82
59789;BME280;47353;51.614;5.530;2023-04-09T04:30:32;102360.91;;;8.67;90.30
59789;BME280;47353;51.614;5.530;2023-04-09T04:32:57;102360.09;;;8.60;90.08
59789;BME280;47353;51.614;5.530;2023-04-09T04:35:23;102359.13;;;8.54;90.01
59789;BME280;47353;51.614;5.530;2023-04-09T04:37:49;102359.13;;;8.54;89.77
59789;BME280;47353;51.614;5.530;2023-04-09T04:40:15;102362.22;;;8.39;90.44
59789;BME280;47353;51.614;5.530;2023-04-09T04:42:41;102363.56;;;8.30;90.81
59789;BME280;47353;51.614;5.530;2023-04-09T04:45:07;102357.88;;;8.25;90.80
59789;BME280;47353;51.614;5.530;2023-04-09T04:47:32;102361.09;;;8.16;90.82
59789;BME280;47353;51.614;5.530;2023-04-09T04:49:58;102364.63;;;7.98;91.68
59789;BME280;47353;51.614;5.530;2023-04-09T04:52:23;102365.69;;;7.97;91.15
59789;BME280;47353;51.614;5.530;2023-04-09T04:54:49;102365.63;;;7.73;92.47
59789;BME280;47353;51.614;5.530;2023-04-09T04:57:14;102366.16;;;7.63;92.64
59789;BME280;47353;51.614;5.530;2023-04-09T04:59:40;102368.06;;;7.56;93.18
59789;BME280;47353;51.614;5.530;2023-04-09T05:02:06;102366.19;;;7.50;93.52
59789;BME280;47353;51.614;5.530;2023-04-09T05:04:32;102370.94;;;7.37;93.67
59789;BME280;47353;51.614;5.530;2023-04-09T05:06:58;102368.84;;;7.26;94.65
59789;BME280;47353;51.614;5.530;2023-04-09T05:09:23;102373.75;;;7.17;95.10
59789;BME280;47353;51.614;5.530;2023-04-09T05:11:49;102367.00;;;7.13;95.36
59789;BME280;47353;51.614;5.530;2023-04-09T05:14:14;102371.22;;;7.16;95.37
59789;BME280;47353;51.614;5.530;2023-04-09T05:16:40;102373.16;;;7.02;96.04
59789;BME280;47353;51.614;5.530;2023-04-09T05:19:05;102372.09;;;7.10;95.36
59789;BME280;47353;51.614;5.530;2023-04-09T05:21:31;102371.94;;;6.98;96.06
59789;BME280;47353;51.614;5.530;2023-04-09T05:23:56;102370.84;;;6.93;96.24
59789;BME280;47353;51.614;5.530;2023-04-09T05:26:22;102361.97;;;6.97;96.15
59789;BME280;47353;51.614;5.530;2023-04-09T05:28:48;102364.75;;;6.91;96.61
59789;BME280;47353;51.614;5.530;2023-04-09T05:31:13;102372.38;;;6.82;97.09
59789;BME280;47353;51.614;5.530;2023-04-09T05:33:40;102367.72;;;6.89;96.53
59789;BME280;47353;51.614;5.530;2023-04-09T05:36:06;102371.94;;;6.98;95.66
59789;BME280;47353;51.614;5.530;2023-04-09T05:38:31;102364.97;;;6.89;96.29
59789;BME280;47353;51.614;5.530;2023-04-09T05:40:57;102374.91;;;6.97;95.43
59789;BME280;47353;51.614;5.530;2023-04-09T05:43:22;102372.56;;;6.94;95.68
59789;BME280;47353;51.614;5.530;2023-04-09T05:45:48;102373.22;;;6.89;96.39
59789;BME280;47353;51.614;5.530;2023-04-09T05:48:13;102374.09;;;6.83;96.92
59789;BME280;47353;51.614;5.530;2023-04-09T05:50:39;102381.72;;;6.81;97.71
59789;BME280;47353;51.614;5.530;2023-04-09T05:53:04;102367.94;;;6.81;97.51
59789;BME280;47353;51.614;5.530;2023-04-09T05:55:30;102370.25;;;6.91;97.32
59789;BME280;47353;51.614;5.530;2023-04-09T05:57:56;102370.25;;;6.91;97.79
59789;BME280;47353;51.614;5.530;2023-04-09T06:00:22;102369.16;;;6.98;97.56
59789;BME280;47353;51.614;5.530;2023-04-09T06:02:47;102371.94;;;6.98;98.02
59789;BME280;47353;51.614;5.530;2023-04-09T06:05:13;102377.19;;;7.06;97.59
59789;BME280;47353;51.614;5.530;2023-04-09T06:07:38;102380.75;;;7.13;97.62
59789;BME280;47353;51.614;5.530;2023-04-09T06:10:04;102376.25;;;7.25;96.54
59789;BME280;47353;51.614;5.530;2023-04-09T06:12:30;102382.63;;;7.26;97.49
59789;BME280;47353;51.614;5.530;2023-04-09T06:14:55;102383.66;;;7.31;97.63
59789;BME280;47353;51.614;5.530;2023-04-09T06:17:20;102379.19;;;7.43;97.11
59789;BME280;47353;51.614;5.530;2023-04-09T06:19:46;102375.25;;;7.57;96.98
59789;BME280;47353;51.614;5.530;2023-04-09T06:22:11;102383.88;;;7.74;96.61
59789;BME280;47353;51.614;5.530;2023-04-09T06:24:37;102379.75;;;7.89;96.30
59789;BME280;47353;51.614;5.530;2023-04-09T06:27:02;102380.69;;;8.08;95.86
59789;BME280;47353;51.614;5.530;2023-04-09T06:29:27;102382.69;;;8.25;95.54
59789;BME280;47353;51.614;5.530;2023-04-09T06:31:53;102388.88;;;8.45;94.80
59789;BME280;47353;51.614;5.530;2023-04-09T06:34:19;102393.63;;;8.63;94.08
59789;BME280;47353;51.614;5.530;2023-04-09T06:36:44;102387.28;;;8.81;93.54
59789;BME280;47353;51.614;5.530;2023-04-09T06:39:10;102388.38;;;8.98;93.03
59789;BME280;47353;51.614;5.530;2023-04-09T06:41:35;102393.94;;;9.16;91.18
59789;BME280;47353;51.614;5.530;2023-04-09T06:44:01;102390.06;;;9.35;88.35
59789;BME280;47353;51.614;5.530;2023-04-09T06:46:27;102397.13;;;9.49;86.80
59789;BME280;47353;51.614;5.530;2023-04-09T06:48:53;102404.78;;;9.65;84.80
59789;BME280;47353;51.614;5.530;2023-04-09T06:51:18;102400.22;;;9.70;85.55
59789;BME280;47353;51.614;5.530;2023-04-09T06:53:44;102398.25;;;9.59;86.54
59789;BME280;47353;51.614;5.530;2023-04-09T06:56:09;102392.16;;;9.69;86.55
59789;BME280;47353;51.614;5.530;2023-04-09T06:58:35;102404.03;;;9.87;84.28
59789;BME280;47353;51.614;5.530;2023-04-09T07:01:00;102404.66;;;9.89;82.60
59789;BME280;47353;51.614;5.530;2023-04-09T07:03:26;102394.06;;;9.86;83.30
59789;BME280;47353;51.614;5.530;2023-04-09T07:05:53;102406.00;;;9.98;84.01
59789;BME280;47353;51.614;5.530;2023-04-09T07:08:19;102402.97;;;10.18;81.90
59789;BME280;47353;51.614;5.530;2023-04-09T07:10:44;102402.00;;;10.24;82.49
59789;BME280;47353;51.614;5.530;2023-04-09T07:13:11;102407.50;;;10.42;81.38
59789;BME280;47353;51.614;5.530;2023-04-09T07:15:37;102405.13;;;10.69;79.69
59789;BME280;47353;51.614;5.530;2023-04-09T07:18:03;102403.19;;;11.04;77.01
59789;BME280;47353;51.614;5.530;2023-04-09T07:20:28;102404.16;;;10.86;78.19
59789;BME280;47353;51.614;5.530;2023-04-09T07:22:53;102410.03;;;11.13;77.88
59789;BME280;47353;51.614;5.530;2023-04-09T07:25:19;102413.50;;;11.31;76.92
59789;BME280;47353;51.614;5.530;2023-04-09T07:27:45;102411.09;;;11.35;73.63
59789;BME280;47353;51.614;5.530;2023-04-09T07:30:11;102414.38;;;11.09;74.92
59789;BME280;47353;51.614;5.530;2023-04-09T07:32:36;102417.03;;;10.92;74.76
59789;BME280;47353;51.614;5.530;2023-04-09T07:35:04;102408.59;;;10.87;75.02
59789;BME280;47353;51.614;5.530;2023-04-09T07:37:30;102420.75;;;10.63;76.15
59789;BME280;47353;51.614;5.530;2023-04-09T07:39:55;102412.22;;;10.65;76.94
59789;BME280;47353;51.614;5.530;2023-04-09T07:42:21;102403.66;;;10.66;76.30
59789;BME280;47353;51.614;5.530;2023-04-09T07:44:46;102398.84;;;10.62;77.04
59789;BME280;47353;51.614;5.530;2023-04-09T07:47:12;102402.22;;;10.75;76.54
59789;BME280;47353;51.614;5.530;2023-04-09T07:49:38;102414.25;;;10.92;76.05
59789;BME280;47353;51.614;5.530;2023-04-09T07:52:04;102414.75;;;11.01;75.72
59789;BME280;47353;51.614;5.530;2023-04-09T07:54:29;102408.47;;;11.28;74.88
59789;BME280;47353;51.614;5.530;2023-04-09T07:56:59;102407.25;;;11.87;74.84
59789;BME280;47353;51.614;5.530;2023-04-09T07:59:25;102409.19;;;12.31;72.31
59789;BME280;47353;51.614;5.530;2023-04-09T08:01:52;102404.91;;;12.73;70.28
59789;BME280;47353;51.614;5.530;2023-04-09T08:04:17;102408.19;;;12.87;69.14
59789;BME280;47353;51.614;5.530;2023-04-09T08:06:43;102410.63;;;13.16;68.12
59789;BME280;47353;51.614;5.530;2023-04-09T08:09:14;102408.19;;;13.03;67.37
59789;BME280;47353;51.614;5.530;2023-04-09T08:11:39;102412.13;;;12.91;66.22
59789;BME280;47353;51.614;5.530;2023-04-09T08:14:05;102416.34;;;12.60;68.43
59789;BME280;47353;51.614;5.530;2023-04-09T08:16:31;102416.59;;;12.42;68.56
59789;BME280;47353;51.614;5.530;2023-04-09T08:18:56;102415.94;;;12.52;69.98
59789;BME280;47353;51.614;5.530;2023-04-09T08:21:23;102414.25;;;12.84;69.68
59789;BME280;47353;51.614;5.530;2023-04-09T08:23:49;102407.81;;;13.16;68.11
59789;BME280;47353;51.614;5.530;2023-04-09T08:26:15;102413.22;;;13.23;67.50
59789;BME280;47353;51.614;5.530;2023-04-09T08:28:40;102413.00;;;13.29;66.42
59789;BME280;47353;51.614;5.530;2023-04-09T08:31:08;102414.53;;;13.37;65.92
59789;BME280;47353;51.614;5.530;2023-04-09T08:33:33;102415.28;;;13.97;66.73
59789;BME280;47353;51.614;5.530;2023-04-09T08:35:58;102412.47;;;15.19;61.78
59789;BME280;47353;51.614;5.530;2023-04-09T08:38:24;102414.81;;;15.88;60.11
59789;BME280;47353;51.614;5.530;2023-04-09T08:40:50;102413.84;;;16.70;56.31
59789;BME280;47353;51.614;5.530;2023-04-09T08:43:18;102403.41;;;17.50;53.44
59789;BME280;47353;51.614;5.530;2023-04-09T08:45:46;102407.09;;;17.99;50.43
59789;BME280;47353;51.614;5.530;2023-04-09T08:48:12;102412.69;;;18.48;49.40
59789;BME280;47353;51.614;5.530;2023-04-09T08:50:38;102409.19;;;18.95;47.56
59789;BME280;47353;51.614;5.530;2023-04-09T08:53:05;102409.31;;;19.13;46.19
59789;BME280;47353;51.614;5.530;2023-04-09T08:55:31;102403.94;;;19.17;46.68
59789;BME280;47353;51.614;5.530;2023-04-09T08:57:59;102406.47;;;19.42;44.84
59789;BME280;47353;51.614;5.530;2023-04-09T09:00:24;102399.00;;;19.79;46.05
59789;BME280;47353;51.614;5.530;2023-04-09T09:03:07;102403.19;;;20.43;44.99
59789;BME280;47353;51.614;5.530;2023-04-09T09:05:42;102403.31;;;20.33;43.82
59789;BME280;47353;51.614;5.530;2023-04-09T09:08:10;102406.97;;;20.15;42.49
59789;BME280;47353;51.614;5.530;2023-04-09T09:10:45;102407.03;;;20.47;42.18
59789;BME280;47353;51.614;5.530;2023-04-09T09:13:17;102406.91;;;20.20;42.96
59789;BME280;47353;51.614;5.530;2023-04-09T09:15:43;102406.91;;;20.38;41.92
59789;BME280;47353;51.614;5.530;2023-04-09T09:18:08;102411.31;;;20.26;41.59
59789;BME280;47353;51.614;5.530;2023-04-09T09:20:34;102404.69;;;20.86;40.78
59789;BME280;47353;51.614;5.530;2023-04-09T09:22:59;102400.59;;;20.97;40.35
59789;BME280;47353;51.614;5.530;2023-04-09T09:25:25;102402.44;;;22.01;39.76
59789;BME280;47353;51.614;5.530;2023-04-09T09:27:52;102397.38;;;22.25;38.30
59789;BME280;47353;51.614;5.530;2023-04-09T09:30:22;102393.41;;;22.26;38.42
59789;BME280;47353;51.614;5.530;2023-04-09T09:32:54;102405.03;;;22.82;37.61
59789;BME280;47353;51.614;5.530;2023-04-09T09:35:28;102400.00;;;22.79;36.07
59789;BME280;47353;51.614;5.530;2023-04-09T09:38:01;102397.25;;;23.19;36.48
59789;BME280;47353;51.614;5.530;2023-04-09T09:40:28;102392.50;;;22.97;36.12
59789;BME280;47353;51.614;5.530;2023-04-09T09:42:56;102394.53;;;23.27;36.13
59789;BME280;47353;51.614;5.530;2023-04-09T09:45:23;102393.66;;;23.96;35.06
59789;BME280;47353;51.614;5.530;2023-04-09T09:47:49;102383.88;;;24.53;34.25
59789;BME280;47353;51.614;5.530;2023-04-09T09:50:15;102386.53;;;24.33;33.38
59789;BME280;47353;51.614;5.530;2023-04-09T09:52:44;102385.53;;;24.29;33.82
59789;BME280;47353;51.614;5.530;2023-04-09T09:55:13;102375.25;;;23.29;34.92
59789;BME280;47353;51.614;5.530;2023-04-09T09:57:42;102372.28;;;22.81;35.54
59789;BME280;47353;51.614;5.530;2023-04-09T10:00:12;102374.19;;;23.47;35.42
59789;BME280;47353;51.614;5.530;2023-04-09T10:03:05;102370.91;;;23.71;34.80
59789;BME280;47353;51.614;5.530;2023-04-09T10:05:32;102368.78;;;22.54;35.01
59789;BME280;47353;51.614;5.530;2023-04-09T10:08:01;102367.09;;;22.17;36.61
59789;BME280;47353;51.614;5.530;2023-04-09T10:10:27;102365.78;;;23.03;36.27
59789;BME280;47353;51.614;5.530;2023-04-09T10:12:53;102362.22;;;24.49;34.00
59789;BME280;47353;51.614;5.530;2023-04-09T10:15:20;102365.72;;;23.56;32.72
59789;BME280;47353;51.614;5.530;2023-04-09T10:17:45;102363.72;;;22.29;34.08
59789;BME280;47353;51.614;5.530;2023-04-09T10:20:23;102358.47;;;21.73;36.35
59789;BME280;47353;51.614;5.530;2023-04-09T10:22:51;102350.69;;;20.84;38.18
59789;BME280;47353;51.614;5.530;2023-04-09T10:25:17;102350.91;;;21.47;37.90
59789;BME280;47353;51.614;5.530;2023-04-09T10:27:43;102354.63;;;21.01;39.77
59789;BME280;47353;51.614;5.530;2023-04-09T10:30:32;102349.25;;;20.86;39.21
59789;BME280;47353;51.614;5.530;2023-04-09T10:33:15;102342.44;;;19.86;42.48
59789;BME280;47353;51.614;5.530;2023-04-09T10:35:41;102341.31;;;18.93;40.63
59789;BME280;47353;51.614;5.530;2023-04-09T10:38:09;102337.53;;;19.31;40.36
59789;BME280;47353;51.614;5.530;2023-04-09T10:40:49;102329.09;;;19.54;40.16
59789;BME280;47353;51.614;5.530;2023-04-09T10:43:18;102328.63;;;19.47;40.43
59789;BME280;47353;51.614;5.530;2023-04-09T10:45:44;102333.75;;;19.17;40.76
59789;BME280;47353;51.614;5.530;2023-04-09T10:48:12;102329.59;;;18.86;40.61
59789;BME280;47353;51.614;5.530;2023-04-09T10:50:38;102321.84;;;18.49;40.55
59789;BME280;47353;51.614;5.530;2023-04-09T10:53:06;102321.06;;;18.39;41.71
59789;BME280;47353;51.614;5.530;2023-04-09T10:55:47;102308.03;;;18.19;41.17
59789;BME280;47353;51.614;5.530;2023-04-09T10:58:14;102314.22;;;18.16;41.88
59789;BME280;47353;51.614;5.530;2023-04-09T11:00:44;102311.09;;;18.22;42.05
59789;BME280;47353;51.614;5.530;2023-04-09T11:03:23;102309.63;;;18.64;40.47
59789;BME280;47353;51.614;5.530;2023-04-09T11:06:03;102306.84;;;21.10;37.14
59789;BME280;47353;51.614;5.530;2023-04-09T11:08:32;102305.88;;;23.23;34.62
59789;BME280;47353;51.614;5.530;2023-04-09T11:10:58;102305.22;;;23.65;30.43
59789;BME280;47353;51.614;5.530;2023-04-09T11:13:26;102306.34;;;22.77;30.93
59789;BME280;47353;51.614;5.530;2023-04-09T11:15:53;102301.66;;;21.58;31.99
59789;BME280;47353;51.614;5.530;2023-04-09T11:18:27;102300.13;;;20.79;34.61
59789;BME280;47353;51.614;5.530;2023-04-09T11:20:58;102305.25;;;20.45;35.24
59789;BME280;47353;51.614;5.530;2023-04-09T11:23:24;102295.59;;;20.19;35.01
59789;BME280;47353;51.614;5.530;2023-04-09T11:25:50;102304.63;;;19.78;35.53
59789;BME280;47353;51.614;5.530;2023-04-09T11:28:16;102296.84;;;19.28;35.71
59789;BME280;47353;51.614;5.530;2023-04-09T11:30:42;102298.88;;;18.99;36.21
59789;BME280;47353;51.614;5.530;2023-04-09T11:33:08;102299.34;;;18.83;36.89
59789;BME280;47353;51.614;5.530;2023-04-09T11:35:34;102300.34;;;19.81;36.07
59789;BME280;47353;51.614;5.530;2023-04-09T11:38:05;102293.97;;;20.63;34.70
59789;BME280;47353;51.614;5.530;2023-04-09T11:40:30;102286.31;;;20.64;35.29
59789;BME280;47353;51.614;5.530;2023-04-09T11:42:56;102292.28;;;20.30;33.76
59789;BME280;47353;51.614;5.530;2023-04-09T11:45:26;102289.44;;;21.35;33.97
59789;BME280;47353;51.614;5.530;2023-04-09T11:47:52;102290.50;;;22.98;30.06
59789;BME280;47353;51.614;5.530;2023-04-09T11:50:18;102277.94;;;24.72;28.23
59789;BME280;47353;51.614;5.530;2023-04-09T11:52:45;102281.31;;;24.05;27.88
59789;BME280;47353;51.614;5.530;2023-04-09T11:55:11;102279.63;;;24.38;26.85
59789;BME280;47353;51.614;5.530;2023-04-09T11:57:46;102281.88;;;25.25;25.72
59789;BME280;47353;51.614;5.530;2023-04-09T12:00:13;102284.81;;;24.11;26.89
59789;BME280;47353;51.614;5.530;2023-04-09T12:02:49;102287.19;;;23.36;29.70
59789;BME280;47353;51.614;5.530;2023-04-09T12:05:24;102287.88;;;22.71;29.30
59789;BME280;47353;51.614;5.530;2023-04-09T12:07:52;102279.69;;;24.93;27.68
59789;BME280;47353;51.614;5.530;2023-04-09T12:10:26;102277.84;;;26.46;25.36
59789;BME280;47353;51.614;5.530;2023-04-09T12:12:51;102279.47;;;27.48;23.25
59789;BME280;47353;51.614;5.530;2023-04-09T12:15:24;102272.00;;;28.90;21.74
59789;BME280;47353;51.614;5.530;2023-04-09T12:17:53;102281.41;;;29.53;21.41
59789;BME280;47353;51.614;5.530;2023-04-09T12:22:56;102268.03;;;27.85;21.54
59789;BME280;47353;51.614;5.530;2023-04-09T12:25:24;102273.69;;;26.64;23.00
59789;BME280;47353;51.614;5.530;2023-04-09T12:27:49;102279.25;;;26.40;23.67
59789;BME280;47353;51.614;5.530;2023-04-09T12:30:15;102278.94;;;26.74;22.68
59789;BME280;47353;51.614;5.530;2023-04-09T12:32:40;102276.81;;;25.68;23.36
59789;BME280;47353;51.614;5.530;2023-04-09T12:35:09;102276.66;;;25.65;23.46
59789;BME280;47353;51.614;5.530;2023-04-09T12:37:34;102268.31;;;25.89;23.28
59789;BME280;47353;51.614;5.530;2023-04-09T12:39:59;102276.16;;;26.45;22.61
59789;BME280;47353;51.614;5.530;2023-04-09T12:42:25;102266.19;;;27.28;21.46
59789;BME280;47353;51.614;5.530;2023-04-09T12:44:50;102257.78;;;27.44;21.65
59789;BME280;47353;51.614;5.530;2023-04-09T12:47:16;102262.34;;;27.85;21.14
59789;BME280;47353;51.614;5.530;2023-04-09T12:49:43;102266.03;;;27.85;22.12
59789;BME280;47353;51.614;5.530;2023-04-09T12:52:10;102263.06;;;26.85;21.51
59789;BME280;47353;51.614;5.530;2023-04-09T12:54:36;102260.25;;;27.09;22.00
59789;BME280;47353;51.614;5.530;2023-04-09T12:57:01;102256.53;;;26.73;22.09
59789;BME280;47353;51.614;5.530;2023-04-09T12:59:27;102261.41;;;26.52;22.60
59789;BME280;47353;51.614;5.530;2023-04-09T13:01:52;102254.13;;;25.68;23.11
59789;BME280;47353;51.614;5.530;2023-04-09T13:04:17;102254.38;;;25.26;23.42